createdAt,value
2018-01-31T01:53:02.271Z,6.67
2018-01-31T01:55:29.843Z,9.10
2018-01-31T01:57:57.407Z,10.47
2018-01-31T02:00:25.011Z,10.77
2018-01-31T02:02:52.601Z,9.37
2018-01-31T02:05:20.175Z,11.73
2018-01-31T02:07:47.772Z,9.73
2018-01-31T02:10:15.352Z,13.67
2018-01-31T02:12:42.911Z,7.83
2018-01-31T02:15:10.528Z,13.20
2018-01-31T02:17:38.078Z,7.87
2018-01-31T02:20:05.814Z,9.03
2018-01-31T02:22:33.691Z,5.67
2018-01-31T02:25:01.259Z,12.20
2018-01-31T02:27:28.836Z,11.93
2018-01-31T02:29:56.457Z,9.27
2018-01-31T02:32:24.020Z,7.47
2018-01-31T02:34:51.577Z,9.00
2018-01-31T02:37:19.159Z,14.00
2018-01-31T02:39:56.534Z,5.93
2018-01-31T02:42:24.136Z,11.20
2018-01-31T02:44:51.726Z,11.63
2018-01-31T02:47:19.305Z,9.70
2018-01-31T02:49:46.934Z,6.83
2018-01-31T02:52:14.639Z,8.93
2018-01-31T02:54:42.203Z,11.10
2018-01-31T02:57:09.807Z,6.37
2018-01-31T02:59:37.419Z,10.03
2018-01-31T03:02:04.981Z,4.40
2018-01-31T03:04:32.564Z,9.37
2018-01-31T03:07:11.497Z,8.57
2018-01-31T03:09:39.101Z,13.40
2018-01-31T03:12:06.675Z,5.83
2018-01-31T03:14:34.449Z,11.80
2018-01-31T03:17:02.073Z,16.10
2018-01-31T03:19:29.821Z,10.80
2018-01-31T03:21:57.396Z,7.87
2018-01-31T03:24:24.986Z,13.80
2018-01-31T03:26:52.555Z,17.27
2018-01-31T03:29:20.129Z,19.40
2018-01-31T03:31:47.867Z,17.40
2018-01-31T03:34:15.519Z,27.57
2018-01-31T03:36:43.210Z,15.93
2018-01-31T03:39:10.822Z,7.13
2018-01-31T03:41:38.401Z,17.43
2018-01-31T03:44:05.966Z,14.63
2018-01-31T03:46:33.642Z,19.63
2018-01-31T03:49:01.230Z,11.10
2018-01-31T03:51:28.981Z,26.60
2018-01-31T03:53:56.625Z,15.60
2018-01-31T03:56:24.197Z,16.00
2018-01-31T03:58:52.015Z,21.43
2018-01-31T04:01:19.670Z,23.60
2018-01-31T04:03:47.258Z,16.50
2018-01-31T04:06:14.847Z,22.67
2018-01-31T04:08:42.449Z,34.73
2018-01-31T04:11:10.018Z,28.83
2018-01-31T04:13:37.799Z,20.00
2018-01-31T04:16:05.778Z,20.97
2018-01-31T04:18:33.462Z,17.93
2018-01-31T04:21:01.039Z,16.53
2018-01-31T04:23:28.639Z,14.03
2018-01-31T04:25:56.243Z,17.60
2018-01-31T04:28:23.815Z,26.57
2018-01-31T04:30:51.556Z,20.30
2018-01-31T04:33:19.219Z,23.57
2018-01-31T04:35:46.794Z,26.33
2018-01-31T04:38:14.416Z,21.40
2018-01-31T04:40:42.221Z,27.20
2018-01-31T04:43:09.861Z,15.80
2018-01-31T04:45:37.464Z,19.67
2018-01-31T04:48:05.024Z,12.90
2018-01-31T04:50:32.661Z,26.53
2018-01-31T04:53:00.285Z,9.50
2018-01-31T04:55:28.197Z,13.53
2018-01-31T04:57:55.853Z,19.33
2018-01-31T05:00:23.463Z,10.63
2018-01-31T05:02:51.179Z,13.70
2018-01-31T05:05:18.775Z,13.10
2018-01-31T05:07:46.470Z,15.77
2018-01-31T05:10:14.079Z,22.40
2018-01-31T05:12:41.671Z,31.83
2018-01-31T05:15:09.476Z,30.90
2018-01-31T05:17:37.031Z,13.00
2018-01-31T05:20:04.596Z,20.87
2018-01-31T05:22:32.279Z,21.83
2018-01-31T05:24:59.925Z,20.47
2018-01-31T05:27:27.508Z,31.93
2018-01-31T05:29:55.143Z,18.33
2018-01-31T05:32:22.714Z,19.27
2018-01-31T05:34:50.291Z,33.50
2018-01-31T05:37:17.896Z,36.20
2018-01-31T05:39:45.451Z,46.83
2018-01-31T05:42:13.040Z,32.97
2018-01-31T05:44:40.647Z,32.93
2018-01-31T05:47:08.242Z,324.83
2018-01-31T05:49:35.950Z,72.07
2018-01-31T05:52:03.555Z,29.73
2018-01-31T05:54:31.144Z,35.03
2018-01-31T05:56:58.728Z,28.77
2018-01-31T05:59:26.340Z,22.90
2018-01-31T06:01:56.841Z,32.97
2018-01-31T06:04:24.587Z,33.87
2018-01-31T06:06:52.224Z,28.93
2018-01-31T06:09:19.816Z,77.10
2018-01-31T06:11:47.383Z,74.20
2018-01-31T06:14:15.002Z,78.03
2018-01-31T06:16:42.579Z,36.40
2018-01-31T06:19:10.353Z,40.57
2018-01-31T06:21:37.966Z,27.37
2018-01-31T06:24:05.643Z,22.60
2018-01-31T06:26:33.394Z,18.10
2018-01-31T06:29:01.251Z,18.60
2018-01-31T06:31:28.864Z,22.47
2018-01-31T06:33:56.489Z,31.83
2018-01-31T06:36:24.136Z,34.30
2018-01-31T06:38:51.733Z,18.20
2018-01-31T06:41:19.340Z,21.50
2018-01-31T06:43:46.942Z,24.40
2018-01-31T06:46:14.635Z,22.37
2018-01-31T06:48:42.220Z,24.23
2018-01-31T06:51:09.837Z,27.80
2018-01-31T06:53:37.618Z,27.57
2018-01-31T06:56:05.200Z,20.90
2018-01-31T06:58:32.883Z,46.80
2018-01-31T07:01:00.465Z,27.13
2018-01-31T07:03:28.058Z,21.80
2018-01-31T07:05:55.666Z,28.70
2018-01-31T07:08:23.238Z,28.17
2018-01-31T07:10:50.826Z,38.57
2018-01-31T07:13:18.450Z,34.53
2018-01-31T07:15:46.156Z,57.63
2018-01-31T07:18:13.733Z,58.20
2018-01-31T07:20:41.352Z,84.03
2018-01-31T07:23:08.952Z,57.53
2018-01-31T07:25:36.618Z,47.57
2018-01-31T07:28:04.287Z,50.47
2018-01-31T07:30:31.859Z,49.47
2018-01-31T07:33:01.021Z,38.80
2018-01-31T07:35:28.782Z,35.00
2018-01-31T07:37:56.351Z,31.80
2018-01-31T07:40:23.930Z,58.23
2018-01-31T07:42:51.587Z,38.63
2018-01-31T07:45:19.166Z,34.60
2018-01-31T07:47:46.745Z,34.10
2018-01-31T07:50:14.351Z,42.47
2018-01-31T07:52:41.928Z,51.90
2018-01-31T07:55:09.681Z,95.33
2018-01-31T07:57:37.314Z,42.70
2018-01-31T08:00:04.902Z,36.70
2018-01-31T08:02:32.475Z,38.47
2018-01-31T08:05:00.099Z,41.93
2018-01-31T08:07:27.695Z,43.17
2018-01-31T08:09:55.258Z,35.77
2018-01-31T08:12:22.890Z,28.10
2018-01-31T08:14:50.469Z,39.00
2018-01-31T08:17:18.064Z,43.17
2018-01-31T08:19:45.675Z,49.80
2018-01-31T08:22:13.334Z,31.50
2018-01-31T08:24:41.055Z,35.47
2018-01-31T08:27:08.739Z,30.20
2018-01-31T08:29:36.403Z,48.13
2018-01-31T08:32:03.978Z,27.40
2018-01-31T08:34:31.588Z,27.60
2018-01-31T08:36:59.180Z,36.40
2018-01-31T08:39:26.766Z,20.70
2018-01-31T08:41:54.616Z,10.90
2018-01-31T08:44:22.456Z,17.20
2018-01-31T08:46:50.033Z,10.30
2018-01-31T08:49:17.677Z,14.77
2018-01-31T08:51:45.581Z,13.07
2018-01-31T08:54:13.337Z,8.37
2018-01-31T08:56:41.547Z,8.97
2018-01-31T08:59:09.727Z,10.20
2018-01-31T09:01:37.303Z,14.87
2018-01-31T09:04:04.975Z,18.70
2018-01-31T09:06:32.537Z,23.63
2018-01-31T09:09:00.174Z,9.83
2018-01-31T09:11:27.798Z,25.20
2018-01-31T09:13:55.357Z,12.17
2018-01-31T09:16:22.999Z,6.60
2018-01-31T09:18:50.616Z,10.27
2018-01-31T09:21:18.191Z,8.50
2018-01-31T09:23:45.763Z,13.27
2018-01-31T09:26:13.368Z,4.67
2018-01-31T09:28:41.038Z,2.77
2018-01-31T09:31:08.606Z,13.07
2018-01-31T09:33:36.366Z,5.23
2018-01-31T09:36:04.045Z,11.17
2018-01-31T09:38:31.618Z,4.97
2018-01-31T09:40:59.375Z,13.50
2018-01-31T09:43:26.958Z,2.47
2018-01-31T09:45:54.701Z,4.43
2018-01-31T09:48:22.656Z,4.87
2018-01-31T09:50:50.420Z,5.63
2018-01-31T09:53:18.498Z,13.67
2018-01-31T09:55:45.744Z,3.07
2018-01-31T09:58:13.313Z,10.20
2018-01-31T10:00:41.275Z,4.33
2018-01-31T10:03:08.894Z,5.03
2018-01-31T10:05:36.474Z,5.90
2018-01-31T10:08:04.043Z,78.47
2018-01-31T10:10:31.642Z,3.53
2018-01-31T10:12:59.217Z,4.17
2018-01-31T10:15:26.779Z,7.30
2018-01-31T10:17:54.473Z,5.43
2018-01-31T10:20:22.288Z,6.07
2018-01-31T10:22:49.861Z,6.77
2018-01-31T10:25:17.477Z,16.00
2018-01-31T10:27:45.047Z,7.80
2018-01-31T10:30:12.615Z,9.37
2018-01-31T10:32:40.216Z,7.43
2018-01-31T10:35:07.786Z,3.30
2018-01-31T10:37:35.378Z,8.80
2018-01-31T10:40:03.056Z,6.30
2018-01-31T10:42:30.965Z,4.23
2018-01-31T10:44:58.518Z,2.83
2018-01-31T10:47:26.125Z,3.37
2018-01-31T10:49:53.688Z,5.50
2018-01-31T10:52:21.235Z,9.07
2018-01-31T10:57:28.865Z,19.77
2018-01-31T10:59:44.369Z,10.13
2018-01-31T11:02:11.950Z,6.00
2018-01-31T11:04:39.527Z,13.20
2018-01-31T11:07:07.094Z,2.60
2018-01-31T11:09:34.783Z,3.40
2018-01-31T11:12:02.338Z,1.60
2018-01-31T11:14:30.012Z,3.33
2018-01-31T11:16:57.620Z,10.60
2018-01-31T11:19:25.225Z,3.97
2018-01-31T11:21:52.792Z,11.70
2018-01-31T11:24:20.456Z,2.20
2018-01-31T11:26:48.036Z,8.83
2018-01-31T11:29:15.590Z,6.57
2018-01-31T11:31:43.192Z,2.93
2018-01-31T11:34:10.791Z,5.50
2018-01-31T11:36:38.371Z,5.07
2018-01-31T11:39:05.980Z,8.00
2018-01-31T11:41:33.548Z,2.47
2018-01-31T11:44:01.120Z,7.03
2018-01-31T11:46:28.702Z,7.90
2018-01-31T11:48:56.267Z,9.50
2018-01-31T11:51:23.827Z,2.10
2018-01-31T11:53:51.475Z,5.67
2018-01-31T11:56:19.060Z,3.23
2018-01-31T11:58:46.628Z,18.17
2018-01-31T12:01:14.234Z,28.57
2018-01-31T12:03:41.811Z,4.97
2018-01-31T12:06:09.470Z,12.63
2018-01-31T12:08:37.247Z,4.03
2018-01-31T12:11:04.790Z,10.13
2018-01-31T12:16:45.057Z,3.23
2018-01-31T12:22:23.301Z,2.80
2018-01-31T12:25:02.742Z,6.33
2018-01-31T12:27:42.069Z,2.77
2018-01-31T12:30:21.282Z,15.93
2018-01-31T12:33:00.539Z,2.73
2018-01-31T12:35:39.934Z,5.17
2018-01-31T12:38:19.207Z,12.77
2018-01-31T12:40:46.251Z,4.57
2018-01-31T12:43:13.265Z,2.30
2018-01-31T12:45:40.288Z,4.83
2018-01-31T12:48:19.612Z,2.90
2018-01-31T12:50:58.931Z,3.27
2018-01-31T12:53:38.331Z,1.73
2018-01-31T12:56:17.550Z,8.80
2018-01-31T13:01:54.913Z,1.40
2018-01-31T13:04:44.174Z,6.60
2018-01-31T13:07:22.440Z,3.20
2018-01-31T13:13:06.433Z,4.63
2018-01-31T13:18:58.619Z,4.07
2018-01-31T13:21:37.882Z,3.67
2018-01-31T13:24:17.366Z,6.70
2018-01-31T13:30:01.454Z,4.23
2018-01-31T13:32:40.751Z,7.97
2018-01-31T13:35:20.148Z,10.07
2018-01-31T13:38:05.105Z,2.93
2018-01-31T13:40:44.524Z,7.03
2018-01-31T13:43:23.746Z,5.67
2018-01-31T13:46:03.251Z,12.60
2018-01-31T13:48:42.748Z,6.00
2018-01-31T13:54:19.594Z,1.90
2018-01-31T13:56:59.100Z,18.30
2018-01-31T13:59:38.477Z,4.00
2018-01-31T14:02:17.968Z,8.73
2018-01-31T14:04:57.199Z,8.33
2018-01-31T14:07:36.643Z,4.40
2018-01-31T14:10:15.904Z,18.23
2018-01-31T14:15:57.772Z,11.10
2018-01-31T14:18:37.027Z,5.53
2018-01-31T14:21:16.548Z,8.53
2018-01-31T14:23:55.831Z,16.10
2018-01-31T14:26:35.037Z,29.10
2018-01-31T14:29:14.537Z,11.87
2018-01-31T14:34:53.520Z,8.00
2018-01-31T14:37:20.537Z,17.00
2018-01-31T14:39:47.553Z,11.67
2018-01-31T14:42:14.852Z,16.77
2018-01-31T14:44:41.887Z,16.73
2018-01-31T14:47:09.094Z,29.20
2018-01-31T14:49:36.163Z,22.07
2018-01-31T14:52:03.217Z,20.70
2018-01-31T14:54:30.251Z,46.53
2018-01-31T14:56:57.322Z,43.90
2018-01-31T14:59:24.383Z,24.07
2018-01-31T15:01:51.585Z,27.47
2018-01-31T15:04:18.820Z,29.77
2018-01-31T15:06:45.890Z,21.43
2018-01-31T15:09:12.923Z,17.47
2018-01-31T15:11:40.163Z,22.03
2018-01-31T15:14:07.212Z,23.03
2018-01-31T15:16:34.286Z,39.80
2018-01-31T15:19:01.339Z,44.50
2018-01-31T15:21:28.363Z,40.03
2018-01-31T15:23:55.839Z,52.50
2018-01-31T15:26:22.885Z,64.20
2018-01-31T15:28:49.886Z,19.97
2018-01-31T15:31:16.894Z,90.90
2018-01-31T15:33:44.029Z,33.03
2018-01-31T15:36:11.061Z,93.70
2018-01-31T15:38:38.311Z,99.10
2018-01-31T15:41:05.448Z,111.10
2018-01-31T15:43:32.493Z,51.40
2018-01-31T15:45:59.673Z,85.43
2018-01-31T15:48:26.762Z,63.40
2018-01-31T15:50:53.793Z,56.60
2018-01-31T15:53:20.810Z,45.20
2018-01-31T15:55:47.879Z,84.05
2018-01-31T15:58:14.896Z,77.17
2018-01-31T16:00:41.922Z,177.80
2018-01-31T16:03:09.000Z,146.13
2018-01-31T16:05:36.015Z,99.13
2018-01-31T16:08:03.113Z,81.83
2018-01-31T16:10:30.181Z,75.70
2018-01-31T16:12:57.201Z,78.87
2018-01-31T16:15:24.435Z,99.53
2018-01-31T16:17:52.035Z,66.03
2018-01-31T16:20:31.307Z,104.50
2018-01-31T16:22:58.915Z,92.77
2018-01-31T16:25:26.588Z,63.80
2018-01-31T16:28:06.028Z,64.33
2018-01-31T16:30:45.249Z,55.40
2018-01-31T16:33:34.454Z,85.30
2018-01-31T16:36:02.046Z,73.13
2018-01-31T16:38:29.708Z,78.53
2018-01-31T16:40:57.398Z,59.60
2018-01-31T16:43:25.053Z,68.40
2018-01-31T16:45:52.704Z,122.40
2018-01-31T16:48:20.324Z,81.43
2018-01-31T16:50:47.906Z,63.57
2018-01-31T16:53:15.485Z,101.57
2018-01-31T16:55:43.074Z,62.67
2018-01-31T16:58:10.634Z,97.37
2018-01-31T17:00:38.228Z,52.30
2018-01-31T17:03:05.848Z,50.13
2018-01-31T17:05:33.410Z,51.93
2018-01-31T17:08:00.970Z,49.87
2018-01-31T17:10:28.604Z,51.60
2018-01-31T17:12:56.174Z,64.23
2018-01-31T17:15:23.741Z,52.10
2018-01-31T17:17:51.330Z,70.13
2018-01-31T17:20:18.897Z,45.90
2018-01-31T17:22:46.631Z,59.87
2018-01-31T17:25:14.250Z,68.17
2018-01-31T17:27:41.956Z,50.67
2018-01-31T17:30:09.593Z,42.37
2018-01-31T17:32:37.212Z,59.13
2018-01-31T17:35:04.943Z,52.77
2018-01-31T17:37:32.607Z,64.43
2018-01-31T17:40:00.229Z,44.70
2018-01-31T17:42:27.784Z,52.23
2018-01-31T17:44:55.395Z,53.47
2018-01-31T17:47:23.037Z,48.50
2018-01-31T17:49:50.817Z,39.23
2018-01-31T17:52:18.642Z,45.63
2018-01-31T17:54:46.230Z,45.40
2018-01-31T17:57:13.901Z,34.53
2018-01-31T17:59:41.463Z,33.43
2018-01-31T18:02:09.263Z,37.87
2018-01-31T18:04:36.820Z,44.17
2018-01-31T18:07:04.550Z,66.60
2018-01-31T18:09:32.151Z,56.47
2018-01-31T18:11:59.717Z,53.10
2018-01-31T18:14:27.291Z,55.43
2018-01-31T18:16:54.912Z,73.13
2018-01-31T18:19:22.511Z,50.20
2018-01-31T18:21:50.088Z,49.03
2018-01-31T18:24:17.702Z,75.40
2018-01-31T18:26:45.334Z,46.23
2018-01-31T18:29:12.906Z,51.37
2018-01-31T18:31:40.528Z,82.83
2018-01-31T18:34:08.070Z,56.00
2018-01-31T18:36:35.635Z,41.90
2018-01-31T18:39:03.522Z,32.87
2018-01-31T18:41:31.114Z,35.23
2018-01-31T18:43:58.694Z,37.87
2018-01-31T18:46:26.298Z,41.50
2018-01-31T18:48:53.987Z,26.87
2018-01-31T18:51:21.549Z,60.77
2018-01-31T18:53:49.138Z,68.20
2018-01-31T18:56:16.694Z,44.17
2018-01-31T18:58:44.261Z,40.73
2018-01-31T19:01:11.892Z,35.90
2018-01-31T19:03:39.474Z,38.13
2018-01-31T19:06:07.047Z,46.90
2018-01-31T19:08:34.646Z,40.37
2018-01-31T19:11:02.206Z,50.67
2018-01-31T19:13:29.830Z,46.80
2018-01-31T19:15:57.447Z,34.13
2018-01-31T19:18:25.009Z,52.93
2018-01-31T19:20:52.576Z,35.27
2018-01-31T19:23:20.255Z,29.17
2018-01-31T19:25:47.802Z,33.83
2018-01-31T19:28:15.362Z,51.43
2018-01-31T19:30:42.962Z,34.40
2018-01-31T19:33:10.558Z,42.07
2018-01-31T19:35:38.143Z,30.50
2018-01-31T19:38:05.745Z,42.40
2018-01-31T19:40:33.307Z,26.47
2018-01-31T19:43:00.921Z,29.20
2018-01-31T19:45:28.759Z,28.47
2018-01-31T19:47:56.356Z,51.07
2018-01-31T19:50:24.089Z,48.43
2018-01-31T19:52:51.994Z,68.23
2018-01-31T19:55:19.615Z,60.77
2018-01-31T19:57:47.204Z,42.13
2018-01-31T20:00:14.990Z,34.83
2018-01-31T20:02:42.607Z,40.33
2018-01-31T20:05:10.159Z,27.97
2018-01-31T20:07:37.749Z,30.13
2018-01-31T20:10:05.396Z,27.40
2018-01-31T20:12:32.965Z,28.47
2018-01-31T20:15:00.559Z,44.53
2018-01-31T20:17:30.525Z,41.73
2018-01-31T20:19:58.201Z,23.50
2018-01-31T20:22:25.853Z,30.63
2018-01-31T20:24:53.420Z,51.70
2018-01-31T20:27:21.508Z,22.67
2018-01-31T20:29:49.105Z,21.10
2018-01-31T20:32:16.662Z,30.40
2018-01-31T20:34:44.222Z,25.33
2018-01-31T20:37:11.821Z,29.20
2018-01-31T20:39:39.398Z,108.33
2018-01-31T20:42:06.963Z,60.43
2018-01-31T20:44:34.726Z,38.23
2018-01-31T20:47:02.303Z,51.93
2018-01-31T20:49:29.863Z,19.57
2018-01-31T20:51:57.460Z,34.67
2018-01-31T20:54:25.027Z,25.90
2018-01-31T20:56:52.582Z,38.77
2018-01-31T20:59:20.224Z,37.20
2018-01-31T21:01:47.779Z,25.93
2018-01-31T21:04:15.357Z,24.63
2018-01-31T21:06:43.071Z,30.10
2018-01-31T21:09:10.732Z,30.63
2018-01-31T21:11:38.320Z,25.10
2018-01-31T21:14:05.927Z,42.53
2018-01-31T21:16:33.480Z,44.67
2018-01-31T21:19:01.038Z,32.97
2018-01-31T21:21:28.655Z,45.07
2018-01-31T21:23:56.228Z,62.77
2018-01-31T21:26:23.856Z,62.97
2018-01-31T21:28:51.451Z,47.57
2018-01-31T21:31:18.991Z,40.73
2018-01-31T21:33:46.548Z,31.50
2018-01-31T21:36:14.219Z,30.40
2018-01-31T21:38:41.824Z,40.23
2018-01-31T21:41:09.396Z,37.40
2018-01-31T21:43:36.973Z,28.53
2018-01-31T21:46:04.585Z,40.13
2018-01-31T21:48:32.162Z,41.20
2018-01-31T21:50:59.762Z,51.30
2018-01-31T21:53:27.316Z,30.53
2018-01-31T21:55:54.879Z,24.90
2018-01-31T21:58:22.476Z,30.63
2018-01-31T22:00:50.070Z,31.90
2018-01-31T22:03:18.237Z,29.23
2018-01-31T22:05:45.814Z,26.50
2018-01-31T22:08:13.669Z,27.43
2018-01-31T22:10:41.229Z,30.17
2018-01-31T22:13:08.833Z,24.00
2018-01-31T22:15:36.413Z,45.83
2018-01-31T22:18:04.030Z,32.50
2018-01-31T22:20:31.644Z,30.97
2018-01-31T22:22:59.216Z,32.67
2018-01-31T22:25:26.793Z,32.87
2018-01-31T22:27:54.397Z,38.63
2018-01-31T22:30:21.955Z,31.63
2018-01-31T22:32:49.591Z,25.00
2018-01-31T22:35:17.268Z,30.17
2018-01-31T22:37:44.921Z,29.60
2018-01-31T22:40:12.511Z,30.87
2018-01-31T22:42:40.168Z,42.33
2018-01-31T22:45:07.742Z,44.63
2018-01-31T22:47:35.341Z,27.33
2018-01-31T22:50:02.944Z,27.43
2018-01-31T22:52:30.501Z,42.43
2018-01-31T22:54:58.073Z,31.90
2018-01-31T22:57:25.668Z,37.13
2018-01-31T22:59:53.479Z,31.03
2018-01-31T23:02:21.055Z,22.83
2018-01-31T23:04:48.654Z,30.50
2018-01-31T23:07:16.258Z,20.70
2018-01-31T23:09:43.847Z,28.63
2018-01-31T23:12:17.060Z,32.37
2018-01-31T23:14:50.292Z,26.10
2018-01-31T23:17:23.528Z,23.40
2018-01-31T23:19:51.090Z,36.40
2018-01-31T23:22:18.638Z,26.20
2018-01-31T23:24:47.098Z,30.67
2018-01-31T23:27:14.677Z,32.00
2018-01-31T23:29:42.250Z,42.70
2018-01-31T23:32:10.077Z,37.23
2018-01-31T23:34:37.699Z,31.37
2018-01-31T23:37:05.270Z,40.33
2018-01-31T23:39:32.878Z,32.93
2018-01-31T23:42:00.535Z,68.03
2018-01-31T23:44:28.186Z,34.10
2018-01-31T23:46:55.797Z,40.53
2018-01-31T23:49:23.727Z,33.83
2018-01-31T23:51:51.386Z,31.67
2018-01-31T23:54:19.023Z,36.47
2018-01-31T23:56:46.600Z,30.70
2018-01-31T23:59:14.169Z,35.20
